Home > Products > Valid Products > TAF

000
FTUS42 KTAE 021100
TAFDHN
TAF
KDHN 021137Z 0212/0312 14003KT P6SM FEW040
     FM021800 22005KT P6SM SCT050
     FM030000 23004KT P6SM FEW250=



000
FTUS42 KTAE 021100
TAFTLH
TAF
KTLH 021137Z 0212/0312 14004KT P6SM FEW040
     FM021800 17006KT P6SM VCTS SCT050CB
     FM030000 00000KT P6SM FEW250=



000
FTUS42 KTAE 021100
TAFVLD
TAF
KVLD 021137Z 0212/0312 04004KT P6SM FEW040
     FM022200 15004KT P6SM VCTS SCT040CB
     FM030500 00000KT P6SM FEW250=



000
FTUS42 KTAE 021100
TAFABY
TAF
KABY 021137Z 0212/0312 19004KT P6SM FEW040
     FM021800 27006KT P6SM VCTS SCT050CB
     FM030000 VRB03KT P6SM FEW250=



000
FTUS42 KTAE 020500
TAFVLD
TAF
KVLD 020520Z 0206/0306 VRB02KT P6SM FEW040
     FM022200 15004KT P6SM VCTS SCT040CB=



000
FTUS42 KTAE 020500
TAFABY
TAF
KABY 020520Z 0206/0306 VRB03KT P6SM FEW040
     FM021800 27006KT P6SM VCTS SCT050CB
     FM030000 VRB03KT P6SM FEW250=



000
FTUS42 KTAE 020500
TAFTLH
TAF
KTLH 020520Z 0206/0306 VRB03KT P6SM FEW040
     FM021800 17006KT P6SM VCTS SCT050CB
     FM030000 00000KT P6SM FEW250=



000
FTUS42 KTAE 020500
TAFDHN
TAF
KDHN 020520Z 0206/0306 VRB03KT P6SM FEW040
     FM021800 22005KT P6SM SCT050
     FM030000 23004KT P6SM FEW250=



000
FTUS42 KTAE 012300
TAFVLD
TAF
KVLD 012334Z 0200/0224 20004KT P6SM VCTS SCT040CB
     FM020300 00000KT P6SM SCT250
     FM021500 36003KT P6SM FEW040
     FM021800 15004KT P6SM VCTS SCT050CB
     FM022000 VRB15G25KT 3SM TSRA SCT030 BKN040CB=



000
FTUS42 KTAE 012300
TAFTLH
TAF
KTLH 012334Z 0200/0224 27004KT P6SM FEW040 SCT250
     FM020300 00000KT P6SM FEW250
     FM021500 30004KT P6SM FEW040
     FM021800 27007KT P6SM VCTS SCT050CB=



000
FTUS42 KTAE 012300
TAFDHN
TAF
KDHN 012334Z 0200/0224 20008KT P6SM SCT060 BKN250
     FM020200 25003KT P6SM SCT250
     FM021500 30006KT P6SM FEW040=



000
FTUS42 KTAE 012300
TAFABY
TAF
KABY 012334Z 0200/0224 27004KT P6SM VCTS SCT060CB SCT250
     FM020300 00000KT P6SM SCT250
     FM021500 30005KT P6SM FEW040
     FM021800 25006KT P6SM VCTS SCT050CB=



000
FTUS42 KTAE 011900 AAA
TAFTLH
TAF AMD
KTLH 011925Z 0119/0218 14004KT P6SM SCT050
      TEMPO 0119/0121 VRB15G25KT 1SM TSRA BKN025CB OVC100
     FM020300 00000KT P6SM FEW250
     FM021500 08004KT P6SM FEW040=



000
FTUS42 KTAE 011700
TAFTLH
TAF
KTLH 011740Z 0118/0218 14004KT P6SM SCT050
     FM020300 00000KT P6SM FEW250
     FM021500 08004KT P6SM FEW040=



000
FTUS42 KTAE 011700
TAFABY
TAF
KABY 011740Z 0118/0218 18005KT P6SM FEW050
     FM020300 00000KT P6SM SKC
     FM021500 33005KT P6SM FEW040=



000
FTUS42 KTAE 011700
TAFVLD
TAF
KVLD 011740Z 0118/0218 00000KT P6SM SCT040
     FM012100 15005KT P6SM VCTS SCT045CB
     FM020300 00000KT P6SM SCT200
     FM021400 12004KT P6SM FEW040=



000
FTUS42 KTAE 011700
TAFDHN
TAF
KDHN 011740Z 0118/0218 11007KT P6SM SCT050
     FM020200 00000KT P6SM SKC
     FM021500 35005KT P6SM FEW040=



000
FTUS42 KTAE 011100
TAFVLD
TAF
KVLD 011133Z 0112/0212 00000KT P6SM BKN250
     FM012000 15005KT P6SM VCTS SCT045CB
     FM020400 00000KT P6SM SCT250=



000
FTUS42 KTAE 011100
TAFABY
TAF
KABY 011133Z 0112/0212 00000KT P6SM BKN250
     FM011600 16005KT P6SM SCT050
     FM020300 00000KT P6SM SCT250=



000
FTUS42 KTAE 011100
TAFTLH
TAF
KTLH 011133Z 0112/0212 00000KT P6SM BKN250
     FM011600 16007KT P6SM SCT050
     FM020300 00000KT P6SM SCT250=



000
FTUS42 KTAE 011100
TAFDHN
TAF
KDHN 011133Z 0112/0212 02003KT P6SM BKN250
     FM011900 15006KT P6SM SCT050=



000
FTUS42 KTAE 010500
TAFTLH
TAF
KTLH 010520Z 0106/0206 16005KT P6SM SCT050=



000
FTUS42 KTAE 010500
TAFVLD
TAF
KVLD 010520Z 0106/0206 15008KT P6SM VCTS BKN035CB
     FM010700 18004KT P6SM SCT050
      TEMPO 0111/0113 00000KT 3SM BR SCT002=



000
FTUS42 KTAE 010500
TAFDHN
TAF
KDHN 010520Z 0106/0206 20005KT P6SM SCT050
      TEMPO 0111/0113 00000KT 4SM BR SCT002=



000
FTUS42 KTAE 010500
TAFABY
TAF
KABY 010520Z 0106/0206 21005KT P6SM SCT050
      TEMPO 0111/0113 00000KT 3SM BR SCT002=



000
FTUS42 KTAE 010100 AAB
TAFVLD
TAF AMD
KVLD 010132Z 0102/0124 18004KT P6SM SCT050
      TEMPO 0102/0104 VRB08G18KT 3SM TSRA BKN030CB
     FM010400 18004KT P6SM SCT050
      TEMPO 0111/0113 00000KT 3SM BR SCT002=



000
FTUS42 KTAE 010100 AAA
TAFVLD
TAF AMD
KVLD 010100Z 0101/0124 18004KT P6SM SCT050
      TEMPO 0111/0113 00000KT 3SM BR SCT002=



000
FTUS42 KTAE 312300
TAFVLD
TAF
KVLD 312324Z 0100/0124 18004KT P6SM BKN050
      TEMPO 0100/0104 3SM TSRA BKN030CB
     FM010400 18004KT P6SM SCT040 BKN250
      TEMPO 0111/0113 00000KT 3SM BR SCT002=



000
FTUS42 KTAE 312300
TAFTLH
TAF
KTLH 312324Z 0100/0124 16004KT P6SM SCT050=



000
FTUS42 KTAE 312300
TAFABY
TAF
KABY 312324Z 0100/0124 18004KT P6SM SCT050
      TEMPO 0111/0113 00000KT 3SM BR SCT002=



000
FTUS42 KTAE 312300
TAFDHN
TAF
KDHN 312324Z 0100/0124 18005KT P6SM SCT050
      TEMPO 0111/0113 00000KT 3SM BR SCT002=



000
FTUS42 KTAE 312100 AAA
TAFVLD
TAF AMD
KVLD 312127Z 3121/0118 18005KT P6SM SCT040
      TEMPO 3122/0101 VRB10G20KT 3SM TSRA BKN030CB=



000
FTUS42 KTAE 312100 AAA
TAFDHN
TAF AMD
KDHN 312125Z 3121/0118 VRB04KT P6SM SCT040
      TEMPO 3122/3124 VRB10G20KT 3SM TSRA BKN030CB=



000
FTUS42 KTAE 311700
TAFVLD
TAF
KVLD 311730Z 3118/0118 VRB03KT P6SM SCT040=



000
FTUS42 KTAE 311700
TAFDHN
TAF
KDHN 311730Z 3118/0118 21004KT P6SM SCT040=



000
FTUS42 KTAE 311700
TAFABY
TAF
KABY 311730Z 3118/0118 21004KT P6SM SCT040=



000
FTUS42 KTAE 311700
TAFTLH
TAF
KTLH 311730Z 3118/0118 18005KT P6SM SCT040=



000
FTUS42 KTAE 311400 AAB
TAFDHN
TAF AMD
KDHN 311410Z 3114/0112 14004KT P6SM FEW016
     FM311500 17006KT P6SM SCT025 SCT250
     FM311900 16005KT P6SM VCTS SCT040CB
     FM010000 VRB02KT P6SM BKN250=



000
FTUS42 KTAE 311300 AAA
TAFDHN
TAF AMD
KDHN 311338Z 3114/0112 15005KT P6SM SCT009 BKN015
     FM311430 17006KT P6SM SCT025 SCT250
     FM311900 16005KT P6SM VCTS SCT040CB
     FM010000 VRB02KT P6SM BKN250=



000
FTUS42 KTAE 311100
TAFABY
TAF
KABY 311120Z 3112/0112 07003KT P6SM FEW027
     FM311900 16005KT P6SM VCTS SCT040CB
     FM010000 VRB02KT P6SM BKN250=



000
FTUS42 KTAE 311100
TAFTLH
TAF
KTLH 311120Z 3112/0112 15005KT P6SM FEW090 SCT250
     FM311900 13005KT P6SM VCTS SCT040CB
     FM010000 VRB02KT P6SM BKN250=



000
FTUS42 KTAE 311100
TAFVLD
TAF
KVLD 311120Z 3112/0112 00000KT P6SM SCT250
     FM311900 16005KT P6SM VCTS SCT040CB
     FM010000 00000KT P6SM BKN250=



000
FTUS42 KTAE 311100
TAFDHN
TAF
KDHN 311120Z 3112/0112 10005KT P6SM SCT250
     FM311900 16005KT P6SM VCTS SCT040CB
     FM010000 VRB02KT P6SM BKN250=



000
FTUS42 KTAE 310600 AAA
TAFVLD
TAF AMD
KVLD 310649Z 3107/0106 00000KT 5SM RA BR SCT006 OVC025
      TEMPO 3107/3108 1SM +RA OVC006
     FM311000 00000KT P6SM SCT025 OVC100
     FM311600 16005KT P6SM VCTS SCT040CB
      TEMPO 3119/3123 3SM TSRA BKN030CB
     FM010000 00000KT P6SM BKN250=



000
FTUS42 KTAE 310500
TAFDHN
TAF
KDHN 310537Z 3106/0106 00000KT P6SM BKN250
      TEMPO 3110/3113 3SM BR SCT002
     FM311600 16005KT P6SM VCTS SCT040CB
     FM010000 VRB02KT P6SM BKN250=



000
FTUS42 KTAE 310500
TAFVLD
TAF
KVLD 310537Z 3106/0106 00000KT P6SM SCT050 OVC070
      TEMPO 3110/3113 3SM BR SCT002
     FM311600 16005KT P6SM VCTS SCT040CB
      TEMPO 3119/3123 3SM TSRA BKN030CB
     FM010000 00000KT P6SM BKN250=



000
FTUS42 KTAE 310500
TAFABY
TAF
KABY 310537Z 3106/0106 00000KT 6SM BR SCT070 OVC100
      TEMPO 3106/3110 3SM BR SCT002
     FM311600 16005KT P6SM VCTS SCT040CB
     FM010000 VRB02KT P6SM BKN250=



000
FTUS42 KTAE 310500
TAFTLH
TAF
KTLH 310537Z 3106/0106 00000KT P6SM BKN250
     FM310700 14006KT P6SM VCTS SCT030CB BKN250
     FM310900 VRB02KT P6SM BKN250
      TEMPO 3110/3113 5SM BR SCT002
     FM311600 13005KT P6SM VCTS SCT040CB
      TEMPO 3119/3123 3SM TSRA BKN030CB
     FM010000 VRB02KT P6SM BKN250=



000
FTUS42 KTAE 310300 AAB
TAFVLD
TAF AMD
KVLD 310312Z 3103/3124 18003KT P6SM VCTS SCT030CB BKN250
      TEMPO 3103/3105 1SM +TSRA BKN030CB
     FM310500 00000KT P6SM SCT040 BKN250
      TEMPO 3110/3113 00000KT 3SM BR SCT002
     FM311600 16005KT P6SM SCT040
      TEMPO 3119/3123 3SM TSRA BKN030CB=



000
FTUS42 KTAE 310100 AAA
TAFABY
TAF AMD
KABY 310141Z 3102/3124 VRB03KT P6SM VCTS SCT030CB BKN250
      TEMPO 3102/3104 3SM TSRA BKN030CB
     FM310400 00000KT P6SM SCT040 BKN250
      TEMPO 3110/3113 00000KT 3SM BR SCT002
     FM311600 16005KT P6SM SCT040=



000
FTUS42 KTAE 310100 AAA
TAFVLD
TAF AMD
KVLD 310141Z 3102/3124 18003KT P6SM SCT030 BKN250
      TEMPO 3102/3104 3SM TSRA BKN030CB
     FM310400 00000KT P6SM SCT040 BKN250
      TEMPO 3110/3113 00000KT 3SM BR SCT002
     FM311600 16005KT P6SM SCT040
      TEMPO 3119/3123 3SM TSRA BKN030CB=



000
FTUS42 KTAE 302300
TAFABY
TAF
KABY 302331Z 3100/3124 24004KT P6SM VCTS SCT030CB BKN250
      TEMPO 3100/3102 2SM +TSRA BKN030CB
     FM310300 00000KT P6SM SCT040 BKN250
      TEMPO 3110/3113 00000KT 3SM BR SCT002
     FM311600 16005KT P6SM SCT040=



000
FTUS42 KTAE 302300
TAFVLD
TAF
KVLD 302331Z 3100/3124 18003KT P6SM SCT030 BKN250
      TEMPO 3100/3102 3SM TSRA BKN030CB
     FM310200 00000KT P6SM SCT040 BKN250
      TEMPO 3110/3113 00000KT 3SM BR SCT002
     FM311600 16005KT P6SM SCT040
      TEMPO 3119/3123 3SM TSRA BKN030CB=



000
FTUS42 KTAE 302300
TAFDHN
TAF
KDHN 302331Z 3100/3124 21003KT P6SM SCT030 BKN250
      TEMPO 3110/3113 00000KT 3SM BR SCT002
     FM311600 16005KT P6SM SCT040=



000
FTUS42 KTAE 302300
TAFTLH
TAF
KTLH 302331Z 3100/3124 18003KT P6SM SCT040 BKN250
      TEMPO 3110/3113 00000KT 3SM BR SCT002
     FM311600 13005KT P6SM SCT040
      TEMPO 3119/3123 3SM TSRA BKN030CB=



000
FTUS42 KTAE 302000 AAA
TAFABY
TAF AMD
KABY 302022Z 3020/3118 00000KT P6SM FEW060 SCT080
      TEMPO 3022/3024 3SM TSRA BKN050CB
     FM310000 19004KT P6SM SCT250
     FM311000 00000KT 4SM BR FEW004
     FM311500 15005KT P6SM SCT030 SCT250=



000
FTUS42 KTAE 302000 AAB
TAFTLH
TAF AMD
KTLH 302020Z 3020/3118 15004KT P6SM TS SCT040CB SCT250
     FM302100 17007KT P6SM SCT040 SCT250
     FM310000 19004KT P6SM SCT250
     FM310900 00000KT 5SM BR FEW250
     FM311300 10004KT P6SM SCT030 SCT250=



000
FTUS42 KTAE 301900 AAA
TAFDHN
TAF AMD
KDHN 301955Z 3020/3118 14007KT P6SM BKN045
     FM310000 22005KT P6SM BKN250
     FM311000 00000KT 4SM BR FEW004
     FM311500 16005KT P6SM SCT030 SCT250=



000
FTUS42 KTAE 301900 AAA
TAFTLH
TAF AMD
KTLH 301931Z 3020/3118 32004KT P6SM VCSH SCT045 BKN250
     FM310000 19004KT P6SM SCT250
     FM310900 00000KT 5SM BR FEW250
     FM311300 10004KT P6SM SCT030 SCT250=



000
FTUS42 KTAE 301700
TAFDHN
TAF
KDHN 301740Z 3018/3118 18005KT P6SM VCSH BKN035 BKN045 BKN090
      TEMPO 3019/3021 5SM TSRA BKN035CB
     FM310000 22005KT P6SM BKN250
     FM311000 00000KT 4SM BR FEW004
     FM311500 16005KT P6SM SCT030 SCT250=



000
FTUS42 KTAE 301700
TAFABY
TAF
KABY 301740Z 3018/3118 12003KT P6SM SCT030
      TEMPO 3020/3024 3SM TSRA OVC030CB
     FM310000 19004KT P6SM SCT250
     FM311000 00000KT 4SM BR FEW004
     FM311500 15005KT P6SM SCT030 SCT250=



000
FTUS42 KTAE 301700
TAFTLH
TAF
KTLH 301740Z 3018/3118 12005KT P6SM VCSH SCT045 BKN250
      TEMPO 3018/3020 5SM -TSRA BKN035CB
     FM310000 19004KT P6SM SCT250
     FM310900 00000KT 5SM BR FEW250
     FM311300 10004KT P6SM SCT030 SCT250=



000
FTUS42 KTAE 301700
TAFVLD
TAF
KVLD 301740Z 3018/3118 13004KT P6SM VCSH SCT035
      TEMPO 3018/3022 4SM TSRA BKN035CB
     FM310000 15003KT P6SM BKN250
     FM311000 00000KT 4SM BR FEW004
     FM311500 15005KT P6SM SCT030 SCT250=



000
FTUS42 KTAE 301600 AAB
TAFVLD
TAF AMD
KVLD 301631Z 3017/3112 12004KT P6SM BKN025
      TEMPO 3020/3024 5SM TSRA BKN035CB
     FM310000 15003KT P6SM BKN250=



000
FTUS42 KTAE 301400 AAC
TAFABY
TAF AMD
KABY 301456Z 3015/3112 09003KT P6SM SCT010 BKN021
     FM301800 20007KT P6SM VCTS SCT035CB BKN050
      TEMPO 3020/3024 5SM TSRA BKN035CB
     FM310000 19004KT P6SM SCT250=



000
FTUS42 KTAE 301400 AAD
TAFDHN
TAF AMD
KDHN 301456Z 3015/3112 11006KT P6SM SCT010
     FM301600 20006KT P6SM SCT035 BKN050
      TEMPO 3019/3023 5SM TSRA BKN035CB
     FM310000 22005KT P6SM BKN250
     FM310900 00000KT 2SM BR SCT002=



000
FTUS42 KTAE 301400 AAA
TAFVLD
TAF AMD
KVLD 301456Z 3015/3112 05004KT P6SM BKN015 BKN021
     FM301600 16003KT P6SM VCTS SCT035CB BKN050
      TEMPO 3020/3024 5SM TSRA BKN035CB
     FM310000 15003KT P6SM BKN250=



000
FTUS42 KTAE 301400 AAC
TAFDHN
TAF AMD
KDHN 301440Z 3015/3112 16005KT P6SM BKN006
     FM301600 20006KT P6SM SCT035 BKN050
      TEMPO 3019/3023 5SM TSRA BKN035CB
     FM310000 22005KT P6SM BKN250
     FM310900 00000KT 2SM BR SCT002=



000
FTUS42 KTAE 301400 AAB
TAFABY
TAF AMD
KABY 301414Z 3014/3112 00000KT 4SM BR OVC004
     FM301500 VRB03KT P6SM SCT008
     FM301800 20007KT P6SM VCTS SCT035CB BKN050
      TEMPO 3020/3024 5SM TSRA BKN035CB
     FM310000 19004KT P6SM SCT250=



000
FTUS42 KTAE 301400 AAB
TAFDHN
TAF AMD
KDHN 301406Z 3014/3112 13004KT P6SM OVC002
     FM301500 20003KT P6SM FEW020
     FM301800 20006KT P6SM VCTS SCT035CB BKN050
      TEMPO 3019/3023 5SM TSRA BKN035CB
     FM310000 22005KT P6SM BKN250
     FM310900 00000KT 2SM BR SCT002=



000
FTUS42 KTAE 301300 AAA
TAFABY
TAF AMD
KABY 301301Z 3013/3112 00000KT 1SM BR OVC002
     FM301400 19003KT P6SM FEW020
     FM301800 20007KT P6SM VCTS SCT035CB BKN050
      TEMPO 3020/3024 5SM TSRA BKN035CB
     FM310000 19004KT P6SM SCT250=



000
FTUS42 KTAE 301300 AAA
TAFDHN
TAF AMD
KDHN 301301Z 3013/3112 14004KT 1/2SM FG VV002
     FM301400 20003KT P6SM FEW020
     FM301800 20006KT P6SM VCTS SCT035CB BKN050
      TEMPO 3019/3023 5SM TSRA BKN035CB
     FM310000 22005KT P6SM BKN250
     FM310900 00000KT 2SM BR SCT002=



000
FTUS42 KTAE 301100
TAFABY
TAF
KABY 301139Z 3012/3112 00000KT 5SM BR BKN002
     FM301400 19003KT P6SM FEW020
     FM301800 20007KT P6SM VCTS SCT035CB BKN050
      TEMPO 3020/3024 5SM TSRA BKN035CB
     FM310000 19004KT P6SM SCT250=



000
FTUS42 KTAE 301100
TAFVLD
TAF
KVLD 301139Z 3012/3112 00000KT P6SM FEW010
     FM301300 15003KT P6SM FEW030
     FM301600 16003KT P6SM VCTS SCT035CB BKN050
      TEMPO 3020/3024 5SM TSRA BKN035CB
     FM310000 15003KT P6SM BKN250=



000
FTUS42 KTAE 301100
TAFDHN
TAF
KDHN 301139Z 3012/3112 14004KT 1/4SM FG VV001
     FM301400 20003KT P6SM FEW020
     FM301800 20006KT P6SM VCTS SCT035CB BKN050
      TEMPO 3019/3023 5SM TSRA BKN035CB
     FM310000 22005KT P6SM BKN250
     FM310900 00000KT 2SM BR SCT002=



000
FTUS42 KTAE 301100
TAFTLH
TAF
KTLH 301139Z 3012/3112 00000KT 3SM BR FEW002 SCT250
     FM301400 14003KT P6SM FEW030
     FM301700 16008KT P6SM VCTS SCT035CB BKN050
     FM310000 19004KT P6SM SCT250
     FM310900 00000KT 5SM BR FEW250=



    US Dept of Commerce
    National Oceanic and Atmospheric Administration
    National Weather Service
    1325 East West Highway
    Silver Spring, MD 20910
    Page Author: NWS Internet Services Team
Disclaimer
Information Quality
Credits
Glossary
Privacy Policy
Freedom of Information Act (FOIA)
About Us
Career Opportunities